sensor_id;sensor_type;location;lat;lon;timestamp;P1;durP1;ratioP1;P2;durP2;ratioP2
18411;SDS011;27097;51.738;19.472;2023-04-15T00:01:28;8.15;;;4.15;;
18411;SDS011;27097;51.738;19.472;2023-04-15T00:03:58;5.75;;;4.30;;
18411;SDS011;27097;51.738;19.472;2023-04-15T00:06:24;7.38;;;4.05;;
18411;SDS011;27097;51.738;19.472;2023-04-15T00:08:51;8.75;;;4.78;;
18411;SDS011;27097;51.738;19.472;2023-04-15T00:11:18;7.00;;;4.60;;
18411;SDS011;27097;51.738;19.472;2023-04-15T00:13:45;7.35;;;4.50;;
18411;SDS011;27097;51.738;19.472;2023-04-15T00:16:13;8.35;;;4.47;;
18411;SDS011;27097;51.738;19.472;2023-04-15T00:18:41;6.13;;;4.18;;
18411;SDS011;27097;51.738;19.472;2023-04-15T00:21:08;8.38;;;4.40;;
18411;SDS011;27097;51.738;19.472;2023-04-15T00:23:35;8.95;;;4.35;;
18411;SDS011;27097;51.738;19.472;2023-04-15T00:26:02;5.32;;;4.15;;
18411;SDS011;27097;51.738;19.472;2023-04-15T00:28:29;5.93;;;4.15;;
18411;SDS011;27097;51.738;19.472;2023-04-15T00:30:56;6.70;;;4.47;;
18411;SDS011;27097;51.738;19.472;2023-04-15T00:33:23;8.85;;;4.25;;
18411;SDS011;27097;51.738;19.472;2023-04-15T00:35:51;8.45;;;4.22;;
18411;SDS011;27097;51.738;19.472;2023-04-15T00:38:18;7.95;;;4.30;;
18411;SDS011;27097;51.738;19.472;2023-04-15T00:40:45;5.97;;;4.18;;
18411;SDS011;27097;51.738;19.472;2023-04-15T00:43:12;6.60;;;4.47;;
18411;SDS011;27097;51.738;19.472;2023-04-15T00:45:39;6.15;;;4.10;;
18411;SDS011;27097;51.738;19.472;2023-04-15T00:48:06;5.53;;;4.00;;
18411;SDS011;27097;51.738;19.472;2023-04-15T00:50:33;5.07;;;4.22;;
18411;SDS011;27097;51.738;19.472;2023-04-15T00:53:01;6.82;;;4.15;;
18411;SDS011;27097;51.738;19.472;2023-04-15T00:55:28;6.90;;;3.60;;
18411;SDS011;27097;51.738;19.472;2023-04-15T00:57:55;6.72;;;4.53;;
18411;SDS011;27097;51.738;19.472;2023-04-15T01:00:22;5.85;;;4.18;;
18411;SDS011;27097;51.738;19.472;2023-04-15T01:02:49;6.32;;;4.05;;
18411;SDS011;27097;51.738;19.472;2023-04-15T01:05:17;7.15;;;4.28;;
18411;SDS011;27097;51.738;19.472;2023-04-15T01:07:44;8.05;;;4.45;;
18411;SDS011;27097;51.738;19.472;2023-04-15T01:10:13;7.10;;;4.28;;
18411;SDS011;27097;51.738;19.472;2023-04-15T01:12:40;5.00;;;3.90;;
18411;SDS011;27097;51.738;19.472;2023-04-15T01:15:07;4.55;;;3.63;;
18411;SDS011;27097;51.738;19.472;2023-04-15T01:17:35;4.97;;;4.10;;
18411;SDS011;27097;51.738;19.472;2023-04-15T01:20:03;8.13;;;4.55;;
18411;SDS011;27097;51.738;19.472;2023-04-15T01:22:30;6.57;;;4.43;;
18411;SDS011;27097;51.738;19.472;2023-04-15T01:25:00;7.55;;;4.20;;
18411;SDS011;27097;51.738;19.472;2023-04-15T01:27:33;6.95;;;4.40;;
18411;SDS011;27097;51.738;19.472;2023-04-15T01:30:04;6.30;;;4.10;;
18411;SDS011;27097;51.738;19.472;2023-04-15T01:32:32;6.32;;;4.05;;
18411;SDS011;27097;51.738;19.472;2023-04-15T01:34:59;6.10;;;4.10;;
18411;SDS011;27097;51.738;19.472;2023-04-15T01:37:26;5.85;;;4.38;;
18411;SDS011;27097;51.738;19.472;2023-04-15T01:39:53;7.88;;;4.13;;
18411;SDS011;27097;51.738;19.472;2023-04-15T01:42:21;5.72;;;3.95;;
18411;SDS011;27097;51.738;19.472;2023-04-15T01:44:49;6.90;;;4.00;;
18411;SDS011;27097;51.738;19.472;2023-04-15T01:47:16;6.55;;;4.20;;
18411;SDS011;27097;51.738;19.472;2023-04-15T01:49:43;5.95;;;4.00;;
18411;SDS011;27097;51.738;19.472;2023-04-15T01:52:10;7.10;;;4.32;;
18411;SDS011;27097;51.738;19.472;2023-04-15T01:54:37;7.07;;;3.85;;
18411;SDS011;27097;51.738;19.472;2023-04-15T01:57:03;5.82;;;4.20;;
18411;SDS011;27097;51.738;19.472;2023-04-15T01:59:30;7.65;;;4.50;;
18411;SDS011;27097;51.738;19.472;2023-04-15T02:01:58;5.60;;;3.90;;
18411;SDS011;27097;51.738;19.472;2023-04-15T02:04:25;7.22;;;3.97;;
18411;SDS011;27097;51.738;19.472;2023-04-15T02:06:52;6.15;;;4.40;;
18411;SDS011;27097;51.738;19.472;2023-04-15T02:09:19;5.50;;;4.10;;
18411;SDS011;27097;51.738;19.472;2023-04-15T02:11:46;5.68;;;4.40;;
18411;SDS011;27097;51.738;19.472;2023-04-15T02:14:13;5.97;;;3.97;;
18411;SDS011;27097;51.738;19.472;2023-04-15T02:16:39;5.10;;;4.03;;
18411;SDS011;27097;51.738;19.472;2023-04-15T02:19:08;7.40;;;4.10;;
18411;SDS011;27097;51.738;19.472;2023-04-15T02:21:35;4.05;;;3.60;;
18411;SDS011;27097;51.738;19.472;2023-04-15T02:24:02;6.93;;;3.97;;
18411;SDS011;27097;51.738;19.472;2023-04-15T02:26:29;5.63;;;4.03;;
18411;SDS011;27097;51.738;19.472;2023-04-15T02:28:57;5.25;;;4.18;;
18411;SDS011;27097;51.738;19.472;2023-04-15T02:31:24;5.30;;;3.72;;
18411;SDS011;27097;51.738;19.472;2023-04-15T02:33:51;5.28;;;4.10;;
18411;SDS011;27097;51.738;19.472;2023-04-15T02:36:19;5.57;;;4.03;;
18411;SDS011;27097;51.738;19.472;2023-04-15T02:38:47;5.18;;;3.88;;
18411;SDS011;27097;51.738;19.472;2023-04-15T02:41:14;6.80;;;3.97;;
18411;SDS011;27097;51.738;19.472;2023-04-15T02:43:41;5.32;;;3.75;;
18411;SDS011;27097;51.738;19.472;2023-04-15T02:46:08;5.07;;;3.88;;
18411;SDS011;27097;51.738;19.472;2023-04-15T02:48:38;5.32;;;4.22;;
18411;SDS011;27097;51.738;19.472;2023-04-15T02:51:12;5.55;;;4.20;;
18411;SDS011;27097;51.738;19.472;2023-04-15T02:53:41;4.93;;;4.10;;
18411;SDS011;27097;51.738;19.472;2023-04-15T02:56:08;5.68;;;4.47;;
18411;SDS011;27097;51.738;19.472;2023-04-15T02:58:35;7.40;;;3.88;;
18411;SDS011;27097;51.738;19.472;2023-04-15T03:01:02;5.15;;;4.05;;
18411;SDS011;27097;51.738;19.472;2023-04-15T03:03:29;5.50;;;3.92;;
18411;SDS011;27097;51.738;19.472;2023-04-15T03:05:56;5.28;;;3.88;;
18411;SDS011;27097;51.738;19.472;2023-04-15T03:08:23;5.55;;;4.20;;
18411;SDS011;27097;51.738;19.472;2023-04-15T03:10:51;5.55;;;3.90;;
18411;SDS011;27097;51.738;19.472;2023-04-15T03:13:18;5.25;;;4.00;;
18411;SDS011;27097;51.738;19.472;2023-04-15T03:15:46;5.82;;;4.13;;
18411;SDS011;27097;51.738;19.472;2023-04-15T03:18:14;6.07;;;3.85;;
18411;SDS011;27097;51.738;19.472;2023-04-15T03:20:40;5.35;;;3.78;;
18411;SDS011;27097;51.738;19.472;2023-04-15T03:23:07;5.68;;;4.07;;
18411;SDS011;27097;51.738;19.472;2023-04-15T03:25:34;5.57;;;3.95;;
18411;SDS011;27097;51.738;19.472;2023-04-15T03:28:03;5.03;;;3.85;;
18411;SDS011;27097;51.738;19.472;2023-04-15T03:30:30;6.45;;;3.75;;
18411;SDS011;27097;51.738;19.472;2023-04-15T03:32:57;5.43;;;4.03;;
18411;SDS011;27097;51.738;19.472;2023-04-15T03:35:24;5.47;;;3.90;;
18411;SDS011;27097;51.738;19.472;2023-04-15T03:37:51;4.65;;;3.95;;
18411;SDS011;27097;51.738;19.472;2023-04-15T03:40:19;5.72;;;4.18;;
18411;SDS011;27097;51.738;19.472;2023-04-15T03:42:46;4.75;;;3.72;;
18411;SDS011;27097;51.738;19.472;2023-04-15T03:45:15;4.43;;;3.58;;
18411;SDS011;27097;51.738;19.472;2023-04-15T03:47:42;5.10;;;3.72;;
18411;SDS011;27097;51.738;19.472;2023-04-15T03:50:09;5.00;;;4.00;;
18411;SDS011;27097;51.738;19.472;2023-04-15T03:52:36;5.72;;;4.28;;
18411;SDS011;27097;51.738;19.472;2023-04-15T03:55:03;4.85;;;3.88;;
18411;SDS011;27097;51.738;19.472;2023-04-15T03:57:30;5.15;;;4.00;;
18411;SDS011;27097;51.738;19.472;2023-04-15T04:00:02;5.65;;;4.15;;
18411;SDS011;27097;51.738;19.472;2023-04-15T04:02:30;5.32;;;4.03;;
18411;SDS011;27097;51.738;19.472;2023-04-15T04:04:57;4.70;;;3.65;;
18411;SDS011;27097;51.738;19.472;2023-04-15T04:07:24;4.45;;;3.83;;
18411;SDS011;27097;51.738;19.472;2023-04-15T04:09:51;5.85;;;3.70;;
18411;SDS011;27097;51.738;19.472;2023-04-15T04:12:17;6.10;;;3.70;;
18411;SDS011;27097;51.738;19.472;2023-04-15T04:14:44;5.97;;;3.80;;
18411;SDS011;27097;51.738;19.472;2023-04-15T04:17:11;4.65;;;3.60;;
18411;SDS011;27097;51.738;19.472;2023-04-15T04:19:39;4.80;;;3.50;;
18411;SDS011;27097;51.738;19.472;2023-04-15T04:22:06;6.88;;;3.88;;
18411;SDS011;27097;51.738;19.472;2023-04-15T04:24:33;5.30;;;3.83;;
18411;SDS011;27097;51.738;19.472;2023-04-15T04:26:59;5.82;;;3.53;;
18411;SDS011;27097;51.738;19.472;2023-04-15T04:29:26;4.93;;;3.40;;
18411;SDS011;27097;51.738;19.472;2023-04-15T04:31:53;5.40;;;3.83;;
18411;SDS011;27097;51.738;19.472;2023-04-15T04:34:20;4.03;;;3.35;;
18411;SDS011;27097;51.738;19.472;2023-04-15T04:36:48;4.07;;;3.47;;
18411;SDS011;27097;51.738;19.472;2023-04-15T04:39:15;4.32;;;3.75;;
18411;SDS011;27097;51.738;19.472;2023-04-15T04:41:43;4.72;;;3.50;;
18411;SDS011;27097;51.738;19.472;2023-04-15T04:44:10;4.50;;;3.70;;
18411;SDS011;27097;51.738;19.472;2023-04-15T04:46:37;7.30;;;3.50;;
18411;SDS011;27097;51.738;19.472;2023-04-15T04:49:03;9.52;;;3.33;;
18411;SDS011;27097;51.738;19.472;2023-04-15T04:51:31;4.03;;;3.22;;
18411;SDS011;27097;51.738;19.472;2023-04-15T04:53:59;4.15;;;3.38;;
18411;SDS011;27097;51.738;19.472;2023-04-15T04:56:26;4.20;;;3.40;;
18411;SDS011;27097;51.738;19.472;2023-04-15T04:58:53;4.13;;;3.58;;
18411;SDS011;27097;51.738;19.472;2023-04-15T05:01:19;3.53;;;3.10;;
18411;SDS011;27097;51.738;19.472;2023-04-15T05:03:46;3.90;;;3.17;;
18411;SDS011;27097;51.738;19.472;2023-04-15T05:06:13;4.72;;;3.58;;
18411;SDS011;27097;51.738;19.472;2023-04-15T05:08:40;3.97;;;3.38;;
18411;SDS011;27097;51.738;19.472;2023-04-15T05:11:08;4.25;;;3.42;;
18411;SDS011;27097;51.738;19.472;2023-04-15T05:13:35;3.90;;;3.30;;
18411;SDS011;27097;51.738;19.472;2023-04-15T05:16:03;3.95;;;3.03;;
18411;SDS011;27097;51.738;19.472;2023-04-15T05:18:30;7.57;;;3.40;;
18411;SDS011;27097;51.738;19.472;2023-04-15T05:20:57;5.63;;;3.50;;
18411;SDS011;27097;51.738;19.472;2023-04-15T05:23:24;4.45;;;3.45;;
18411;SDS011;27097;51.738;19.472;2023-04-15T05:25:51;4.22;;;3.38;;
18411;SDS011;27097;51.738;19.472;2023-04-15T05:28:19;4.15;;;3.25;;
18411;SDS011;27097;51.738;19.472;2023-04-15T05:30:46;4.55;;;3.03;;
18411;SDS011;27097;51.738;19.472;2023-04-15T05:33:13;3.65;;;2.83;;
18411;SDS011;27097;51.738;19.472;2023-04-15T05:35:40;3.80;;;3.15;;
18411;SDS011;27097;51.738;19.472;2023-04-15T05:38:07;4.03;;;3.25;;
18411;SDS011;27097;51.738;19.472;2023-04-15T05:40:33;4.95;;;3.60;;
18411;SDS011;27097;51.738;19.472;2023-04-15T05:43:00;3.55;;;3.25;;
18411;SDS011;27097;51.738;19.472;2023-04-15T05:45:29;4.00;;;3.08;;
18411;SDS011;27097;51.738;19.472;2023-04-15T05:47:55;3.10;;;2.80;;
18411;SDS011;27097;51.738;19.472;2023-04-15T05:50:22;3.88;;;3.13;;
18411;SDS011;27097;51.738;19.472;2023-04-15T05:52:49;4.68;;;3.30;;
18411;SDS011;27097;51.738;19.472;2023-04-15T05:55:16;4.32;;;3.30;;
18411;SDS011;27097;51.738;19.472;2023-04-15T05:57:43;3.83;;;3.08;;
18411;SDS011;27097;51.738;19.472;2023-04-15T06:00:10;3.67;;;3.00;;
18411;SDS011;27097;51.738;19.472;2023-04-15T06:02:38;3.47;;;3.17;;
18411;SDS011;27097;51.738;19.472;2023-04-15T06:05:06;3.80;;;3.20;;
18411;SDS011;27097;51.738;19.472;2023-04-15T06:07:33;5.45;;;3.20;;
18411;SDS011;27097;51.738;19.472;2023-04-15T06:10:01;3.75;;;3.05;;
18411;SDS011;27097;51.738;19.472;2023-04-15T06:12:28;3.50;;;3.20;;
18411;SDS011;27097;51.738;19.472;2023-04-15T06:14:55;3.13;;;2.83;;
18411;SDS011;27097;51.738;19.472;2023-04-15T06:17:22;3.50;;;2.90;;
18411;SDS011;27097;51.738;19.472;2023-04-15T06:19:51;3.88;;;3.15;;
18411;SDS011;27097;51.738;19.472;2023-04-15T06:22:19;4.47;;;3.22;;
18411;SDS011;27097;51.738;19.472;2023-04-15T06:24:47;3.40;;;3.10;;
18411;SDS011;27097;51.738;19.472;2023-04-15T06:27:14;3.90;;;3.13;;
18411;SDS011;27097;51.738;19.472;2023-04-15T06:29:41;4.18;;;3.08;;
18411;SDS011;27097;51.738;19.472;2023-04-15T06:32:08;6.20;;;3.63;;
18411;SDS011;27097;51.738;19.472;2023-04-15T06:34:35;9.43;;;3.75;;
18411;SDS011;27097;51.738;19.472;2023-04-15T06:37:03;6.32;;;3.53;;
18411;SDS011;27097;51.738;19.472;2023-04-15T06:39:31;6.05;;;4.05;;
18411;SDS011;27097;51.738;19.472;2023-04-15T06:41:58;3.97;;;3.30;;
18411;SDS011;27097;51.738;19.472;2023-04-15T06:44:25;7.13;;;4.18;;
18411;SDS011;27097;51.738;19.472;2023-04-15T06:46:52;5.28;;;3.80;;
18411;SDS011;27097;51.738;19.472;2023-04-15T06:49:19;6.60;;;4.15;;
18411;SDS011;27097;51.738;19.472;2023-04-15T06:51:45;5.43;;;3.78;;
18411;SDS011;27097;51.738;19.472;2023-04-15T06:54:14;5.40;;;3.70;;
18411;SDS011;27097;51.738;19.472;2023-04-15T06:56:41;4.97;;;3.58;;
18411;SDS011;27097;51.738;19.472;2023-04-15T06:59:08;6.18;;;3.70;;
18411;SDS011;27097;51.738;19.472;2023-04-15T07:01:35;4.72;;;3.50;;
18411;SDS011;27097;51.738;19.472;2023-04-15T07:04:02;8.70;;;3.70;;
18411;SDS011;27097;51.738;19.472;2023-04-15T07:06:29;5.13;;;3.60;;
18411;SDS011;27097;51.738;19.472;2023-04-15T07:08:56;4.18;;;3.30;;
18411;SDS011;27097;51.738;19.472;2023-04-15T07:11:26;4.68;;;3.25;;
18411;SDS011;27097;51.738;19.472;2023-04-15T07:13:52;4.95;;;3.45;;
18411;SDS011;27097;51.738;19.472;2023-04-15T07:16:19;4.72;;;3.45;;
18411;SDS011;27097;51.738;19.472;2023-04-15T07:18:46;4.18;;;3.20;;
18411;SDS011;27097;51.738;19.472;2023-04-15T07:21:13;7.80;;;3.55;;
18411;SDS011;27097;51.738;19.472;2023-04-15T07:23:41;4.05;;;2.95;;
18411;SDS011;27097;51.738;19.472;2023-04-15T07:26:08;4.82;;;3.47;;
18411;SDS011;27097;51.738;19.472;2023-04-15T07:28:38;9.68;;;4.40;;
18411;SDS011;27097;51.738;19.472;2023-04-15T07:31:05;12.48;;;4.28;;
18411;SDS011;27097;51.738;19.472;2023-04-15T07:33:32;13.63;;;4.72;;
18411;SDS011;27097;51.738;19.472;2023-04-15T07:35:59;15.77;;;4.68;;
18411;SDS011;27097;51.738;19.472;2023-04-15T07:38:26;15.35;;;4.75;;
18411;SDS011;27097;51.738;19.472;2023-04-15T07:40:54;9.73;;;4.28;;
18411;SDS011;27097;51.738;19.472;2023-04-15T07:43:21;15.25;;;5.00;;
18411;SDS011;27097;51.738;19.472;2023-04-15T07:45:49;13.70;;;4.40;;
18411;SDS011;27097;51.738;19.472;2023-04-15T07:48:16;15.50;;;3.88;;
18411;SDS011;27097;51.738;19.472;2023-04-15T07:50:46;11.35;;;4.63;;
18411;SDS011;27097;51.738;19.472;2023-04-15T07:53:13;21.65;;;5.00;;
18411;SDS011;27097;51.738;19.472;2023-04-15T07:55:40;12.48;;;5.03;;
18411;SDS011;27097;51.738;19.472;2023-04-15T07:58:07;11.95;;;4.70;;
18411;SDS011;27097;51.738;19.472;2023-04-15T08:00:34;8.52;;;4.20;;
18411;SDS011;27097;51.738;19.472;2023-04-15T08:03:03;14.52;;;5.18;;
18411;SDS011;27097;51.738;19.472;2023-04-15T08:05:30;7.70;;;4.00;;
18411;SDS011;27097;51.738;19.472;2023-04-15T08:07:57;12.40;;;4.45;;
18411;SDS011;27097;51.738;19.472;2023-04-15T08:10:24;14.35;;;4.30;;
18411;SDS011;27097;51.738;19.472;2023-04-15T08:12:51;15.15;;;4.60;;
18411;SDS011;27097;51.738;19.472;2023-04-15T08:15:18;18.88;;;5.57;;
18411;SDS011;27097;51.738;19.472;2023-04-15T08:17:48;17.20;;;5.53;;
18411;SDS011;27097;51.738;19.472;2023-04-15T08:20:21;11.60;;;5.00;;
18411;SDS011;27097;51.738;19.472;2023-04-15T08:22:48;19.83;;;5.03;;
18411;SDS011;27097;51.738;19.472;2023-04-15T08:25:16;13.98;;;5.60;;
18411;SDS011;27097;51.738;19.472;2023-04-15T08:27:43;15.57;;;5.00;;
18411;SDS011;27097;51.738;19.472;2023-04-15T08:30:11;17.98;;;4.95;;
18411;SDS011;27097;51.738;19.472;2023-04-15T08:32:38;17.83;;;5.00;;
18411;SDS011;27097;51.738;19.472;2023-04-15T08:35:05;11.63;;;5.32;;
18411;SDS011;27097;51.738;19.472;2023-04-15T08:37:34;16.58;;;5.00;;
18411;SDS011;27097;51.738;19.472;2023-04-15T08:40:01;12.68;;;4.80;;
18411;SDS011;27097;51.738;19.472;2023-04-15T08:42:29;14.30;;;4.82;;
18411;SDS011;27097;51.738;19.472;2023-04-15T08:45:05;9.27;;;4.68;;
18411;SDS011;27097;51.738;19.472;2023-04-15T08:47:38;15.27;;;5.47;;
18411;SDS011;27097;51.738;19.472;2023-04-15T08:50:07;13.82;;;5.75;;
18411;SDS011;27097;51.738;19.472;2023-04-15T08:52:40;14.18;;;5.15;;
18411;SDS011;27097;51.738;19.472;2023-04-15T08:55:10;15.57;;;5.25;;
18411;SDS011;27097;51.738;19.472;2023-04-15T08:57:40;18.70;;;5.28;;
18411;SDS011;27097;51.738;19.472;2023-04-15T09:03:30;22.95;;;5.43;;
18411;SDS011;27097;51.738;19.472;2023-04-15T09:05:57;10.48;;;5.10;;
18411;SDS011;27097;51.738;19.472;2023-04-15T09:08:27;13.30;;;5.35;;
18411;SDS011;27097;51.738;19.472;2023-04-15T09:10:53;11.18;;;5.03;;
18411;SDS011;27097;51.738;19.472;2023-04-15T09:13:20;12.18;;;5.25;;
18411;SDS011;27097;51.738;19.472;2023-04-15T09:15:48;6.88;;;4.63;;
18411;SDS011;27097;51.738;19.472;2023-04-15T09:18:27;7.45;;;4.60;;
18411;SDS011;27097;51.738;19.472;2023-04-15T09:21:03;10.98;;;4.80;;
18411;SDS011;27097;51.738;19.472;2023-04-15T09:23:32;9.35;;;5.10;;
18411;SDS011;27097;51.738;19.472;2023-04-15T09:25:59;8.88;;;4.90;;
18411;SDS011;27097;51.738;19.472;2023-04-15T09:28:27;8.93;;;5.15;;
18411;SDS011;27097;51.738;19.472;2023-04-15T09:30:55;9.65;;;4.68;;
18411;SDS011;27097;51.738;19.472;2023-04-15T09:33:26;7.97;;;4.38;;
18411;SDS011;27097;51.738;19.472;2023-04-15T09:36:12;11.18;;;4.63;;
18411;SDS011;27097;51.738;19.472;2023-04-15T09:38:48;7.20;;;4.78;;
18411;SDS011;27097;51.738;19.472;2023-04-15T09:41:21;9.80;;;4.90;;
18411;SDS011;27097;51.738;19.472;2023-04-15T09:50:27;6.93;;;4.30;;
18411;SDS011;27097;51.738;19.472;2023-04-15T09:52:55;8.27;;;4.38;;
18411;SDS011;27097;51.738;19.472;2023-04-15T09:55:23;7.50;;;4.78;;
18411;SDS011;27097;51.738;19.472;2023-04-15T09:57:50;9.43;;;4.70;;
18411;SDS011;27097;51.738;19.472;2023-04-15T10:00:19;6.47;;;4.38;;
18411;SDS011;27097;51.738;19.472;2023-04-15T10:03:29;7.57;;;4.40;;
18411;SDS011;27097;51.738;19.472;2023-04-15T10:05:58;8.32;;;4.78;;
18411;SDS011;27097;51.738;19.472;2023-04-15T10:08:55;6.90;;;4.70;;
18411;SDS011;27097;51.738;19.472;2023-04-15T10:11:56;9.20;;;4.63;;
18411;SDS011;27097;51.738;19.472;2023-04-15T10:14:23;7.35;;;4.60;;
18411;SDS011;27097;51.738;19.472;2023-04-15T10:16:53;9.07;;;4.25;;
18411;SDS011;27097;51.738;19.472;2023-04-15T10:19:23;8.70;;;4.72;;
18411;SDS011;27097;51.738;19.472;2023-04-15T10:21:56;6.50;;;4.55;;
18411;SDS011;27097;51.738;19.472;2023-04-15T10:24:24;8.00;;;4.90;;
18411;SDS011;27097;51.738;19.472;2023-04-15T10:26:51;7.43;;;4.80;;
18411;SDS011;27097;51.738;19.472;2023-04-15T10:29:20;6.63;;;4.63;;
18411;SDS011;27097;51.738;19.472;2023-04-15T10:31:49;7.22;;;4.85;;
18411;SDS011;27097;51.738;19.472;2023-04-15T10:34:18;5.43;;;4.47;;
18411;SDS011;27097;51.738;19.472;2023-04-15T10:36:46;8.93;;;5.25;;
18411;SDS011;27097;51.738;19.472;2023-04-15T10:39:37;7.88;;;5.00;;
18411;SDS011;27097;51.738;19.472;2023-04-15T10:42:06;7.05;;;4.90;;
18411;SDS011;27097;51.738;19.472;2023-04-15T10:44:36;6.60;;;4.70;;
18411;SDS011;27097;51.738;19.472;2023-04-15T10:47:05;7.43;;;4.55;;
18411;SDS011;27097;51.738;19.472;2023-04-15T10:49:41;5.78;;;4.85;;
18411;SDS011;27097;51.738;19.472;2023-04-15T10:52:10;7.20;;;4.40;;
18411;SDS011;27097;51.738;19.472;2023-04-15T10:54:37;7.82;;;4.75;;
18411;SDS011;27097;51.738;19.472;2023-04-15T10:57:08;7.80;;;5.22;;
18411;SDS011;27097;51.738;19.472;2023-04-15T11:05:12;7.65;;;4.80;;
18411;SDS011;27097;51.738;19.472;2023-04-15T11:07:40;6.07;;;4.53;;
18411;SDS011;27097;51.738;19.472;2023-04-15T11:13:21;6.38;;;4.75;;
18411;SDS011;27097;51.738;19.472;2023-04-15T11:15:55;8.73;;;4.95;;
18411;SDS011;27097;51.738;19.472;2023-04-15T11:18:25;9.32;;;4.93;;
18411;SDS011;27097;51.738;19.472;2023-04-15T11:20:54;9.55;;;4.43;;
18411;SDS011;27097;51.738;19.472;2023-04-15T11:23:27;6.75;;;5.00;;
18411;SDS011;27097;51.738;19.472;2023-04-15T11:25:59;7.25;;;4.60;;
18411;SDS011;27097;51.738;19.472;2023-04-15T11:28:28;7.43;;;4.65;;
18411;SDS011;27097;51.738;19.472;2023-04-15T11:30:57;8.95;;;4.32;;
18411;SDS011;27097;51.738;19.472;2023-04-15T11:33:30;6.95;;;4.57;;
18411;SDS011;27097;51.738;19.472;2023-04-15T11:35:57;6.65;;;4.72;;
18411;SDS011;27097;51.738;19.472;2023-04-15T11:38:24;7.03;;;4.18;;
18411;SDS011;27097;51.738;19.472;2023-04-15T11:40:52;6.25;;;4.22;;
18411;SDS011;27097;51.738;19.472;2023-04-15T11:43:19;6.63;;;4.40;;
18411;SDS011;27097;51.738;19.472;2023-04-15T11:45:47;6.40;;;4.32;;
18411;SDS011;27097;51.738;19.472;2023-04-15T11:48:20;5.43;;;3.65;;
18411;SDS011;27097;51.738;19.472;2023-04-15T11:50:52;4.47;;;3.50;;
18411;SDS011;27097;51.738;19.472;2023-04-15T11:53:20;5.93;;;3.65;;
18411;SDS011;27097;51.738;19.472;2023-04-15T11:55:48;6.18;;;3.85;;
18411;SDS011;27097;51.738;19.472;2023-04-15T11:58:16;5.85;;;3.78;;
18411;SDS011;27097;51.738;19.472;2023-04-15T12:00:46;4.78;;;3.47;;
18411;SDS011;27097;51.738;19.472;2023-04-15T12:03:16;5.22;;;3.70;;
18411;SDS011;27097;51.738;19.472;2023-04-15T12:11:40;7.32;;;3.90;;
18411;SDS011;27097;51.738;19.472;2023-04-15T12:14:10;5.65;;;3.90;;
18411;SDS011;27097;51.738;19.472;2023-04-15T12:16:39;6.18;;;4.45;;
18411;SDS011;27097;51.738;19.472;2023-04-15T12:19:09;7.55;;;3.95;;
18411;SDS011;27097;51.738;19.472;2023-04-15T12:21:38;8.55;;;4.15;;
18411;SDS011;27097;51.738;19.472;2023-04-15T12:24:08;6.03;;;3.67;;
18411;SDS011;27097;51.738;19.472;2023-04-15T12:26:37;5.22;;;3.47;;
18411;SDS011;27097;51.738;19.472;2023-04-15T12:29:10;5.18;;;3.47;;
18411;SDS011;27097;51.738;19.472;2023-04-15T12:31:45;5.63;;;3.53;;
18411;SDS011;27097;51.738;19.472;2023-04-15T12:34:13;4.15;;;3.33;;
18411;SDS011;27097;51.738;19.472;2023-04-15T12:36:42;4.03;;;3.03;;
18411;SDS011;27097;51.738;19.472;2023-04-15T12:39:09;7.13;;;3.70;;
18411;SDS011;27097;51.738;19.472;2023-04-15T12:41:36;5.30;;;3.50;;
18411;SDS011;27097;51.738;19.472;2023-04-15T12:44:03;5.68;;;3.53;;
18411;SDS011;27097;51.738;19.472;2023-04-15T12:46:30;3.90;;;3.42;;
18411;SDS011;27097;51.738;19.472;2023-04-15T12:48:57;6.35;;;3.42;;
18411;SDS011;27097;51.738;19.472;2023-04-15T12:51:24;5.00;;;3.25;;
18411;SDS011;27097;51.738;19.472;2023-04-15T12:53:53;8.60;;;3.83;;
18411;SDS011;27097;51.738;19.472;2023-04-15T12:56:22;5.90;;;3.65;;
18411;SDS011;27097;51.738;19.472;2023-04-15T12:58:50;6.90;;;3.80;;
18411;SDS011;27097;51.738;19.472;2023-04-15T13:01:18;5.55;;;3.50;;
18411;SDS011;27097;51.738;19.472;2023-04-15T13:03:46;5.38;;;3.17;;
18411;SDS011;27097;51.738;19.472;2023-04-15T13:06:14;5.60;;;3.60;;
18411;SDS011;27097;51.738;19.472;2023-04-15T13:08:41;5.35;;;3.38;;
18411;SDS011;27097;51.738;19.472;2023-04-15T13:11:10;6.15;;;3.50;;
18411;SDS011;27097;51.738;19.472;2023-04-15T13:13:37;7.53;;;3.67;;
18411;SDS011;27097;51.738;19.472;2023-04-15T13:16:04;6.03;;;3.50;;
18411;SDS011;27097;51.738;19.472;2023-04-15T13:18:32;5.43;;;3.20;;
18411;SDS011;27097;51.738;19.472;2023-04-15T13:20:59;7.75;;;3.45;;
18411;SDS011;27097;51.738;19.472;2023-04-15T13:23:28;4.75;;;3.22;;
18411;SDS011;27097;51.738;19.472;2023-04-15T13:25:55;4.68;;;3.28;;
18411;SDS011;27097;51.738;19.472;2023-04-15T13:28:23;7.28;;;3.03;;
18411;SDS011;27097;51.738;19.472;2023-04-15T13:30:50;3.95;;;3.10;;
18411;SDS011;27097;51.738;19.472;2023-04-15T13:33:17;4.30;;;3.40;;
18411;SDS011;27097;51.738;19.472;2023-04-15T13:35:43;5.75;;;3.20;;
18411;SDS011;27097;51.738;19.472;2023-04-15T13:38:10;8.25;;;3.33;;
18411;SDS011;27097;51.738;19.472;2023-04-15T13:40:37;6.05;;;3.10;;
18411;SDS011;27097;51.738;19.472;2023-04-15T13:43:04;8.05;;;3.38;;
18411;SDS011;27097;51.738;19.472;2023-04-15T13:45:33;11.05;;;3.50;;
18411;SDS011;27097;51.738;19.472;2023-04-15T13:48:00;5.97;;;3.30;;
18411;SDS011;27097;51.738;19.472;2023-04-15T13:50:26;8.52;;;3.50;;
18411;SDS011;27097;51.738;19.472;2023-04-15T13:52:54;8.43;;;3.20;;
18411;SDS011;27097;51.738;19.472;2023-04-15T13:55:20;10.30;;;3.03;;
18411;SDS011;27097;51.738;19.472;2023-04-15T13:57:47;8.70;;;3.20;;
18411;SDS011;27097;51.738;19.472;2023-04-15T14:00:14;9.30;;;3.35;;
18411;SDS011;27097;51.738;19.472;2023-04-15T14:02:43;9.93;;;3.30;;
18411;SDS011;27097;51.738;19.472;2023-04-15T14:05:10;5.97;;;3.65;;
18411;SDS011;27097;51.738;19.472;2023-04-15T14:07:37;6.03;;;3.65;;
18411;SDS011;27097;51.738;19.472;2023-04-15T14:10:04;5.57;;;3.20;;
18411;SDS011;27097;51.738;19.472;2023-04-15T14:12:32;6.93;;;3.33;;
18411;SDS011;27097;51.738;19.472;2023-04-15T14:14:59;8.38;;;3.40;;
18411;SDS011;27097;51.738;19.472;2023-04-15T14:27:06;5.38;;;3.38;;
18411;SDS011;27097;51.738;19.472;2023-04-15T14:29:35;6.43;;;3.55;;
18411;SDS011;27097;51.738;19.472;2023-04-15T14:32:02;6.63;;;3.60;;
18411;SDS011;27097;51.738;19.472;2023-04-15T14:34:29;7.70;;;4.07;;
18411;SDS011;27097;51.738;19.472;2023-04-15T14:36:55;13.73;;;3.80;;
18411;SDS011;27097;51.738;19.472;2023-04-15T14:39:22;6.78;;;3.40;;
18411;SDS011;27097;51.738;19.472;2023-04-15T14:41:49;6.50;;;3.70;;
18411;SDS011;27097;51.738;19.472;2023-04-15T14:44:17;7.30;;;3.88;;
18411;SDS011;27097;51.738;19.472;2023-04-15T14:46:44;7.00;;;3.72;;
18411;SDS011;27097;51.738;19.472;2023-04-15T14:49:11;7.53;;;4.30;;
18411;SDS011;27097;51.738;19.472;2023-04-15T14:51:38;4.80;;;3.70;;
18411;SDS011;27097;51.738;19.472;2023-04-15T14:54:05;7.70;;;4.47;;
18411;SDS011;27097;51.738;19.472;2023-04-15T14:56:32;8.15;;;3.75;;
18411;SDS011;27097;51.738;19.472;2023-04-15T14:58:59;6.95;;;4.20;;
18411;SDS011;27097;51.738;19.472;2023-04-15T15:01:28;4.55;;;3.58;;
18411;SDS011;27097;51.738;19.472;2023-04-15T15:03:55;5.90;;;3.53;;
18411;SDS011;27097;51.738;19.472;2023-04-15T15:06:22;6.25;;;3.85;;
18411;SDS011;27097;51.738;19.472;2023-04-15T15:08:48;6.55;;;3.60;;
18411;SDS011;27097;51.738;19.472;2023-04-15T15:11:15;6.35;;;3.85;;
18411;SDS011;27097;51.738;19.472;2023-04-15T15:13:42;5.90;;;3.45;;